sensor_id;sensor_type;location;lat;lon;timestamp;pressure;altitude;pressure_sealevel;temperature;humidity
8253;BME280;61313;48.396;10.008;2023-02-20T00:00:29;97235.97;;;9.32;61.21
8253;BME280;61313;48.396;10.008;2023-02-20T00:02:55;97235.94;;;9.33;61.50
8253;BME280;61313;48.396;10.008;2023-02-20T00:05:21;97245.63;;;9.30;60.63
8253;BME280;61313;48.396;10.008;2023-02-20T00:07:47;97240.56;;;9.22;61.82
8253;BME280;61313;48.396;10.008;2023-02-20T00:10:13;97252.63;;;9.29;60.82
8253;BME280;61313;48.396;10.008;2023-02-20T00:12:38;97249.03;;;9.33;60.48
8253;BME280;61313;48.396;10.008;2023-02-20T00:15:05;97240.38;;;9.30;61.33
8253;BME280;61313;48.396;10.008;2023-02-20T00:17:30;97246.22;;;9.41;60.76
8253;BME280;61313;48.396;10.008;2023-02-20T00:19:56;97243.59;;;9.41;60.96
8253;BME280;61313;48.396;10.008;2023-02-20T00:22:22;97243.72;;;9.35;60.70
8253;BME280;61313;48.396;10.008;2023-02-20T00:24:48;97245.63;;;9.30;61.28
8253;BME280;61313;48.396;10.008;2023-02-20T00:27:13;97238.59;;;9.30;61.22
8253;BME280;61313;48.396;10.008;2023-02-20T00:29:39;97236.78;;;9.34;61.15
8253;BME280;61313;48.396;10.008;2023-02-20T00:32:04;97232.41;;;9.35;61.71
8253;BME280;61313;48.396;10.008;2023-02-20T00:34:30;97256.91;;;9.32;60.75
8253;BME280;61313;48.396;10.008;2023-02-20T00:36:55;97249.78;;;9.37;61.47
8253;BME280;61313;48.396;10.008;2023-02-20T00:39:21;97254.22;;;9.35;61.46
8253;BME280;61313;48.396;10.008;2023-02-20T00:41:46;97259.53;;;9.32;61.85
8253;BME280;61313;48.396;10.008;2023-02-20T00:44:13;97262.25;;;9.27;61.57
8253;BME280;61313;48.396;10.008;2023-02-20T00:46:39;97247.38;;;9.29;62.06
8253;BME280;61313;48.396;10.008;2023-02-20T00:49:04;97235.09;;;9.33;62.00
8253;BME280;61313;48.396;10.008;2023-02-20T00:51:30;97239.25;;;9.40;61.38
8253;BME280;61313;48.396;10.008;2023-02-20T00:53:56;97242.13;;;9.31;61.95
8253;BME280;61313;48.396;10.008;2023-02-20T00:56:22;97249.28;;;9.23;62.43
8253;BME280;61313;48.396;10.008;2023-02-20T00:58:48;97244.09;;;9.21;61.82
8253;BME280;61313;48.396;10.008;2023-02-20T01:01:13;97243.16;;;9.24;62.61
8253;BME280;61313;48.396;10.008;2023-02-20T01:03:41;97243.22;;;9.21;62.44
8253;BME280;61313;48.396;10.008;2023-02-20T01:06:06;97245.09;;;9.16;61.84
8253;BME280;61313;48.396;10.008;2023-02-20T01:08:32;97255.38;;;9.23;61.92
8253;BME280;61313;48.396;10.008;2023-02-20T01:10:57;97252.97;;;9.16;62.70
8253;BME280;61313;48.396;10.008;2023-02-20T01:13:24;97264.41;;;9.11;62.42
8253;BME280;61313;48.396;10.008;2023-02-20T01:15:49;97264.38;;;9.13;62.99
8253;BME280;61313;48.396;10.008;2023-02-20T01:18:15;97278.41;;;9.09;62.39
8253;BME280;61313;48.396;10.008;2023-02-20T01:20:41;97271.38;;;9.13;62.16
8253;BME280;61313;48.396;10.008;2023-02-20T01:23:06;97267.81;;;9.15;62.25
8253;BME280;61313;48.396;10.008;2023-02-20T01:25:32;97261.56;;;9.21;62.68
8253;BME280;61313;48.396;10.008;2023-02-20T01:27:57;97255.22;;;9.29;61.59
8253;BME280;61313;48.396;10.008;2023-02-20T01:30:22;97249.38;;;9.20;62.47
8253;BME280;61313;48.396;10.008;2023-02-20T01:32:48;97258.38;;;9.09;62.38
8253;BME280;61313;48.396;10.008;2023-02-20T01:35:14;97249.59;;;9.10;62.78
8253;BME280;61313;48.396;10.008;2023-02-20T01:37:40;97246.06;;;9.11;62.35
8253;BME280;61313;48.396;10.008;2023-02-20T01:40:06;97243.41;;;9.13;62.94
8253;BME280;61313;48.396;10.008;2023-02-20T01:42:32;97247.91;;;9.08;62.23
8253;BME280;61313;48.396;10.008;2023-02-20T01:45:35;97248.88;;;9.04;62.36
8253;BME280;61313;48.396;10.008;2023-02-20T01:48:01;97242.91;;;8.99;62.80
8253;BME280;61313;48.396;10.008;2023-02-20T01:50:51;97235.53;;;9.15;62.63
8253;BME280;61313;48.396;10.008;2023-02-20T01:53:19;97236.53;;;9.09;62.63
8253;BME280;61313;48.396;10.008;2023-02-20T01:55:50;97237.63;;;9.00;62.64
8253;BME280;61313;48.396;10.008;2023-02-20T01:58:21;97237.47;;;9.06;63.12
8253;BME280;61313;48.396;10.008;2023-02-20T02:00:48;97237.53;;;9.05;62.18
8253;BME280;61313;48.396;10.008;2023-02-20T02:03:17;97235.59;;;9.11;62.48
8253;BME280;61313;48.396;10.008;2023-02-20T02:05:46;97239.84;;;9.17;61.70
8253;BME280;61313;48.396;10.008;2023-02-20T02:08:14;97241.75;;;9.10;61.94
8253;BME280;61313;48.396;10.008;2023-02-20T02:11:02;97235.69;;;9.08;62.37
8253;BME280;61313;48.396;10.008;2023-02-20T02:13:30;97241.00;;;9.05;61.71
8253;BME280;61313;48.396;10.008;2023-02-20T02:18:54;97227.91;;;9.05;61.32
8253;BME280;61313;48.396;10.008;2023-02-20T02:24:17;97213.16;;;9.01;61.62
8253;BME280;61313;48.396;10.008;2023-02-20T02:27:07;97223.59;;;9.03;62.24
8253;BME280;61313;48.396;10.008;2023-02-20T02:37:43;97211.47;;;9.00;61.70
8253;BME280;61313;48.396;10.008;2023-02-20T02:46:25;97196.50;;;9.04;61.89
8253;BME280;61313;48.396;10.008;2023-02-20T02:51:41;97201.25;;;8.88;61.95
8253;BME280;61313;48.396;10.008;2023-02-20T02:54:19;97195.91;;;8.93;62.17
8253;BME280;61313;48.396;10.008;2023-02-20T02:56:48;97203.03;;;8.87;62.23
8253;BME280;61313;48.396;10.008;2023-02-20T02:59:24;97192.97;;;8.71;62.59
8253;BME280;61313;48.396;10.008;2023-02-20T03:01:59;97192.06;;;8.72;62.44
8253;BME280;61313;48.396;10.008;2023-02-20T03:04:27;97197.03;;;8.84;62.54
8253;BME280;61313;48.396;10.008;2023-02-20T03:07:00;97195.56;;;8.72;61.88
8253;BME280;61313;48.396;10.008;2023-02-20T03:09:32;97195.59;;;8.69;62.03
8253;BME280;61313;48.396;10.008;2023-02-20T03:12:00;97197.38;;;8.68;62.01
8253;BME280;61313;48.396;10.008;2023-02-20T03:17:32;97188.53;;;8.74;62.47
8253;BME280;61313;48.396;10.008;2023-02-20T03:20:10;97196.75;;;8.57;62.05
8253;BME280;61313;48.396;10.008;2023-02-20T03:22:51;97201.97;;;8.57;62.23
8253;BME280;61313;48.396;10.008;2023-02-20T03:30:22;97203.22;;;8.41;62.56
8253;BME280;61313;48.396;10.008;2023-02-20T03:32:52;97207.72;;;8.34;63.24
8253;BME280;61313;48.396;10.008;2023-02-20T03:35:41;97207.75;;;8.33;62.45
8253;BME280;61313;48.396;10.008;2023-02-20T03:38:28;97203.28;;;8.38;62.38
8253;BME280;61313;48.396;10.008;2023-02-20T03:41:14;97205.09;;;8.34;63.00
8253;BME280;61313;48.396;10.008;2023-02-20T03:44:03;97202.53;;;8.31;62.55
8253;BME280;61313;48.396;10.008;2023-02-20T03:46:31;97203.03;;;8.50;62.09
8253;BME280;61313;48.396;10.008;2023-02-20T03:51:52;97207.59;;;8.42;61.74
8253;BME280;61313;48.396;10.008;2023-02-20T03:54:26;97197.16;;;8.39;62.41
8253;BME280;61313;48.396;10.008;2023-02-20T03:56:58;97200.81;;;8.32;62.28
8253;BME280;61313;48.396;10.008;2023-02-20T03:59:56;97201.59;;;8.34;62.00
8253;BME280;61313;48.396;10.008;2023-02-20T04:02:29;97204.94;;;8.43;62.64
8253;BME280;61313;48.396;10.008;2023-02-20T04:05:00;97204.31;;;8.29;62.68
8253;BME280;61313;48.396;10.008;2023-02-20T04:07:34;97199.97;;;8.30;62.98
8253;BME280;61313;48.396;10.008;2023-02-20T04:10:03;97197.25;;;8.34;61.77
8253;BME280;61313;48.396;10.008;2023-02-20T04:12:34;97194.69;;;8.31;62.86
8253;BME280;61313;48.396;10.008;2023-02-20T04:15:02;97191.88;;;8.42;61.86
8253;BME280;61313;48.396;10.008;2023-02-20T04:17:32;97191.03;;;8.38;61.54
8253;BME280;61313;48.396;10.008;2023-02-20T04:20:00;97190.28;;;8.35;62.04
8253;BME280;61313;48.396;10.008;2023-02-20T04:22:29;97186.09;;;8.26;62.81
8253;BME280;61313;48.396;10.008;2023-02-20T04:25:03;97181.59;;;8.33;62.65
8253;BME280;61313;48.396;10.008;2023-02-20T04:27:31;97192.06;;;8.33;62.68
8253;BME280;61313;48.396;10.008;2023-02-20T04:29:57;97184.78;;;8.47;61.95
8253;BME280;61313;48.396;10.008;2023-02-20T04:32:23;97191.13;;;8.35;62.52
8253;BME280;61313;48.396;10.008;2023-02-20T04:34:48;97191.06;;;8.40;61.64
8253;BME280;61313;48.396;10.008;2023-02-20T04:37:16;97194.69;;;8.31;61.68
8253;BME280;61313;48.396;10.008;2023-02-20T04:39:44;97197.50;;;8.23;62.22
8253;BME280;61313;48.396;10.008;2023-02-20T04:42:10;97195.69;;;8.25;61.47
8253;BME280;61313;48.396;10.008;2023-02-20T04:44:36;97197.38;;;8.28;61.29
8253;BME280;61313;48.396;10.008;2023-02-20T04:47:09;97186.94;;;8.28;60.94
8253;BME280;61313;48.396;10.008;2023-02-20T04:49:35;97201.19;;;8.13;61.47
8253;BME280;61313;48.396;10.008;2023-02-20T04:52:01;97199.38;;;8.17;61.34
8253;BME280;61313;48.396;10.008;2023-02-20T04:54:26;97200.28;;;8.14;61.99
8253;BME280;61313;48.396;10.008;2023-02-20T04:56:52;97202.16;;;8.09;62.46
8253;BME280;61313;48.396;10.008;2023-02-20T04:59:18;97211.66;;;8.13;61.85
8253;BME280;61313;48.396;10.008;2023-02-20T05:01:43;97205.50;;;8.16;61.19
8253;BME280;61313;48.396;10.008;2023-02-20T05:04:13;97209.88;;;8.15;61.25
8253;BME280;61313;48.396;10.008;2023-02-20T05:06:42;97208.22;;;8.11;61.44
8253;BME280;61313;48.396;10.008;2023-02-20T05:09:07;97194.44;;;8.03;62.11
8253;BME280;61313;48.396;10.008;2023-02-20T05:11:35;97203.19;;;8.00;61.65
8253;BME280;61313;48.396;10.008;2023-02-20T05:14:00;97202.41;;;7.97;62.64
8253;BME280;61313;48.396;10.008;2023-02-20T05:16:27;97192.25;;;7.81;62.90
8253;BME280;61313;48.396;10.008;2023-02-20T05:18:52;97196.72;;;7.76;62.92
8253;BME280;61313;48.396;10.008;2023-02-20T05:21:17;97196.72;;;7.76;62.88
8253;BME280;61313;48.396;10.008;2023-02-20T05:24:01;97196.63;;;7.81;63.12
8253;BME280;61313;48.396;10.008;2023-02-20T05:26:27;97196.63;;;7.81;63.08
8253;BME280;61313;48.396;10.008;2023-02-20T05:28:52;97201.13;;;7.74;63.04
8253;BME280;61313;48.396;10.008;2023-02-20T05:31:17;97199.38;;;7.75;63.21
8253;BME280;61313;48.396;10.008;2023-02-20T05:33:43;97200.09;;;7.83;62.57
8253;BME280;61313;48.396;10.008;2023-02-20T05:36:08;97200.28;;;7.72;62.99
8253;BME280;61313;48.396;10.008;2023-02-20T05:38:34;97195.19;;;7.66;63.20
8253;BME280;61313;48.396;10.008;2023-02-20T05:40:59;97206.44;;;7.70;63.43
8253;BME280;61313;48.396;10.008;2023-02-20T05:43:25;97201.28;;;7.65;63.31
8253;BME280;61313;48.396;10.008;2023-02-20T05:45:50;97206.47;;;7.68;63.03
8253;BME280;61313;48.396;10.008;2023-02-20T05:48:15;97207.66;;;7.52;63.85
8253;BME280;61313;48.396;10.008;2023-02-20T05:50:41;97210.97;;;7.60;63.79
8253;BME280;61313;48.396;10.008;2023-02-20T05:53:07;97217.97;;;7.58;63.82
8253;BME280;61313;48.396;10.008;2023-02-20T05:55:32;97206.66;;;7.57;64.01
8253;BME280;61313;48.396;10.008;2023-02-20T05:57:58;97200.34;;;7.69;62.93
8253;BME280;61313;48.396;10.008;2023-02-20T06:00:24;97215.19;;;7.67;63.12
8253;BME280;61313;48.396;10.008;2023-02-20T06:02:49;97210.94;;;7.63;62.88
8253;BME280;61313;48.396;10.008;2023-02-20T06:05:16;97208.59;;;7.48;63.33
8253;BME280;61313;48.396;10.008;2023-02-20T06:07:43;97211.41;;;7.37;63.69
8253;BME280;61313;48.396;10.008;2023-02-20T06:10:08;97223.69;;;7.32;64.00
8253;BME280;61313;48.396;10.008;2023-02-20T06:12:34;97227.19;;;7.31;63.94
8253;BME280;61313;48.396;10.008;2023-02-20T06:14:59;97219.22;;;7.38;64.01
8253;BME280;61313;48.396;10.008;2023-02-20T06:17:25;97220.03;;;7.40;63.70
8253;BME280;61313;48.396;10.008;2023-02-20T06:19:50;97222.66;;;7.42;63.62
8253;BME280;61313;48.396;10.008;2023-02-20T06:22:16;97216.53;;;7.43;63.65
8253;BME280;61313;48.396;10.008;2023-02-20T06:24:46;97211.09;;;7.54;63.35
8253;BME280;61313;48.396;10.008;2023-02-20T06:27:12;97214.19;;;7.74;62.29
8253;BME280;61313;48.396;10.008;2023-02-20T06:29:37;97210.84;;;8.10;61.11
8253;BME280;61313;48.396;10.008;2023-02-20T06:32:03;97217.41;;;8.29;59.93
8253;BME280;61313;48.396;10.008;2023-02-20T06:34:29;97218.38;;;8.65;58.91
8253;BME280;61313;48.396;10.008;2023-02-20T06:36:58;97223.78;;;8.95;57.85
8253;BME280;61313;48.396;10.008;2023-02-20T06:39:24;97216.44;;;9.44;56.66
8253;BME280;61313;48.396;10.008;2023-02-20T06:41:49;97218.13;;;9.79;55.56
8253;BME280;61313;48.396;10.008;2023-02-20T06:44:14;97221.19;;;9.95;54.96
8253;BME280;61313;48.396;10.008;2023-02-20T06:46:40;97223.88;;;10.23;53.66
8253;BME280;61313;48.396;10.008;2023-02-20T06:49:05;97224.00;;;10.48;52.75
8253;BME280;61313;48.396;10.008;2023-02-20T06:51:33;97221.66;;;10.95;51.87
8253;BME280;61313;48.396;10.008;2023-02-20T06:53:59;97212.69;;;11.29;50.43
8253;BME280;61313;48.396;10.008;2023-02-20T06:56:28;97219.84;;;11.24;50.09
8253;BME280;61313;48.396;10.008;2023-02-20T06:58:55;97232.75;;;11.57;49.41
8253;BME280;61313;48.396;10.008;2023-02-20T07:01:24;97233.22;;;11.95;48.34
8253;BME280;61313;48.396;10.008;2023-02-20T07:03:51;97227.78;;;12.70;47.26
8253;BME280;61313;48.396;10.008;2023-02-20T07:06:18;97231.59;;;13.07;45.84
8253;BME280;61313;48.396;10.008;2023-02-20T07:08:43;97235.06;;;13.29;44.11
8253;BME280;61313;48.396;10.008;2023-02-20T07:11:10;97237.00;;;14.08;43.14
8253;BME280;61313;48.396;10.008;2023-02-20T07:13:35;97220.09;;;14.70;41.18
8253;BME280;61313;48.396;10.008;2023-02-20T07:16:01;97213.50;;;14.98;40.36
8253;BME280;61313;48.396;10.008;2023-02-20T07:18:26;97213.06;;;15.24;40.08
8253;BME280;61313;48.396;10.008;2023-02-20T07:20:53;97213.69;;;15.47;38.95
8253;BME280;61313;48.396;10.008;2023-02-20T07:23:19;97215.34;;;15.67;38.49
8253;BME280;61313;48.396;10.008;2023-02-20T07:25:45;97213.47;;;16.69;38.25
8253;BME280;61313;48.396;10.008;2023-02-20T07:28:12;97216.38;;;16.64;36.20
8253;BME280;61313;48.396;10.008;2023-02-20T07:30:37;97215.59;;;16.30;37.27
8253;BME280;61313;48.396;10.008;2023-02-20T07:33:03;97220.22;;;16.43;36.50
8253;BME280;61313;48.396;10.008;2023-02-20T07:35:28;97216.91;;;17.03;35.31
8253;BME280;61313;48.396;10.008;2023-02-20T07:37:54;97215.72;;;16.92;35.10
8253;BME280;61313;48.396;10.008;2023-02-20T07:40:19;97217.47;;;17.40;35.11
8253;BME280;61313;48.396;10.008;2023-02-20T07:42:45;97214.59;;;17.59;34.35
8253;BME280;61313;48.396;10.008;2023-02-20T07:45:10;97224.06;;;17.32;34.41
8253;BME280;61313;48.396;10.008;2023-02-20T07:47:36;97220.09;;;17.55;33.71
8253;BME280;61313;48.396;10.008;2023-02-20T07:50:01;97219.50;;;17.95;33.48
8253;BME280;61313;48.396;10.008;2023-02-20T07:52:27;97226.56;;;18.10;32.97
8253;BME280;61313;48.396;10.008;2023-02-20T07:54:52;97216.72;;;18.41;32.43
8253;BME280;61313;48.396;10.008;2023-02-20T07:57:18;97213.34;;;18.52;32.35
8253;BME280;61313;48.396;10.008;2023-02-20T07:59:43;97203.84;;;18.91;31.50
8253;BME280;61313;48.396;10.008;2023-02-20T08:02:08;97206.34;;;19.34;31.28
8253;BME280;61313;48.396;10.008;2023-02-20T08:04:34;97206.41;;;19.19;30.99
8253;BME280;61313;48.396;10.008;2023-02-20T08:06:59;97200.63;;;19.40;30.60
8253;BME280;61313;48.396;10.008;2023-02-20T08:09:25;97207.44;;;19.44;30.83
8253;BME280;61313;48.396;10.008;2023-02-20T08:11:50;97204.88;;;19.70;30.46
8253;BME280;61313;48.396;10.008;2023-02-20T08:14:16;97195.50;;;19.77;30.00
8253;BME280;61313;48.396;10.008;2023-02-20T08:16:41;97194.50;;;19.65;29.89
8253;BME280;61313;48.396;10.008;2023-02-20T08:19:07;97194.03;;;19.73;29.80
8253;BME280;61313;48.396;10.008;2023-02-20T08:21:32;97189.31;;;19.76;29.94
8253;BME280;61313;48.396;10.008;2023-02-20T08:23:57;97182.34;;;20.01;29.61
8253;BME280;61313;48.396;10.008;2023-02-20T08:26:23;97176.06;;;19.62;29.99
8253;BME280;61313;48.396;10.008;2023-02-20T08:28:49;97164.44;;;19.37;30.29
8253;BME280;61313;48.396;10.008;2023-02-20T08:31:15;97161.63;;;18.99;31.00
8253;BME280;61313;48.396;10.008;2023-02-20T08:33:40;97163.69;;;18.81;31.65
8253;BME280;61313;48.396;10.008;2023-02-20T08:36:06;97155.34;;;18.58;31.99
8253;BME280;61313;48.396;10.008;2023-02-20T08:38:36;97150.06;;;18.44;31.88
8253;BME280;61313;48.396;10.008;2023-02-20T08:41:07;97160.25;;;18.23;32.46
8253;BME280;61313;48.396;10.008;2023-02-20T08:43:33;97160.94;;;17.98;32.63
8253;BME280;61313;48.396;10.008;2023-02-20T08:45:59;97166.47;;;17.79;33.43
8253;BME280;61313;48.396;10.008;2023-02-20T08:48:25;97170.16;;;17.76;33.76
8253;BME280;61313;48.396;10.008;2023-02-20T08:50:50;97159.84;;;17.42;33.85
8253;BME280;61313;48.396;10.008;2023-02-20T08:53:16;97163.72;;;17.36;34.19
8253;BME280;61313;48.396;10.008;2023-02-20T08:55:42;97166.19;;;17.09;34.54
8253;BME280;61313;48.396;10.008;2023-02-20T08:58:08;97152.66;;;17.44;34.39
8253;BME280;61313;48.396;10.008;2023-02-20T09:00:33;97156.13;;;17.60;33.87
8253;BME280;61313;48.396;10.008;2023-02-20T09:02:59;97146.59;;;17.86;33.20
8253;BME280;61313;48.396;10.008;2023-02-20T09:05:24;97152.97;;;18.12;32.73
8253;BME280;61313;48.396;10.008;2023-02-20T09:07:50;97139.69;;;17.84;32.73
8253;BME280;61313;48.396;10.008;2023-02-20T09:10:18;97155.38;;;17.72;32.78
8253;BME280;61313;48.396;10.008;2023-02-20T09:12:44;97142.22;;;18.14;32.63
8253;BME280;61313;48.396;10.008;2023-02-20T09:15:09;97135.88;;;17.88;32.76
8253;BME280;61313;48.396;10.008;2023-02-20T09:17:35;97138.72;;;17.99;32.88
8253;BME280;61313;48.396;10.008;2023-02-20T09:20:00;97123.84;;;17.96;33.02
8253;BME280;61313;48.396;10.008;2023-02-20T09:22:26;97122.28;;;18.21;32.83
8253;BME280;61313;48.396;10.008;2023-02-20T09:24:53;97122.41;;;18.19;33.04
8253;BME280;61313;48.396;10.008;2023-02-20T09:27:19;97126.84;;;18.05;33.10
8253;BME280;61313;48.396;10.008;2023-02-20T09:29:44;97124.09;;;18.06;33.38
8253;BME280;61313;48.396;10.008;2023-02-20T09:32:11;97123.47;;;18.03;33.52
8253;BME280;61313;48.396;10.008;2023-02-20T09:34:36;97125.78;;;17.78;33.73
8253;BME280;61313;48.396;10.008;2023-02-20T09:37:02;97128.00;;;18.01;32.90
8253;BME280;61313;48.396;10.008;2023-02-20T09:39:27;97117.72;;;18.23;32.38
8253;BME280;61313;48.396;10.008;2023-02-20T09:42:04;97109.84;;;18.36;32.11
8253;BME280;61313;48.396;10.008;2023-02-20T09:49:57;97090.69;;;18.16;32.76
8253;BME280;61313;48.396;10.008;2023-02-20T09:52:25;97094.41;;;17.99;32.91
8253;BME280;61313;48.396;10.008;2023-02-20T09:55:04;97087.03;;;18.19;32.81
8253;BME280;61313;48.396;10.008;2023-02-20T09:57:31;97082.09;;;18.13;32.35
8253;BME280;61313;48.396;10.008;2023-02-20T10:00:13;97078.78;;;17.95;32.28
8253;BME280;61313;48.396;10.008;2023-02-20T10:02:45;97089.66;;;17.76;33.08
8253;BME280;61313;48.396;10.008;2023-02-20T10:05:21;97090.69;;;17.73;33.09
8253;BME280;61313;48.396;10.008;2023-02-20T10:07:48;97083.44;;;17.91;32.92
8253;BME280;61313;48.396;10.008;2023-02-20T10:15:37;97074.75;;;17.73;33.48
8253;BME280;61313;48.396;10.008;2023-02-20T10:23:48;97081.81;;;18.03;33.47
8253;BME280;61313;48.396;10.008;2023-02-20T10:26:20;97074.91;;;18.01;33.56
8253;BME280;61313;48.396;10.008;2023-02-20T10:28:48;97077.66;;;17.85;34.12
8253;BME280;61313;48.396;10.008;2023-02-20T10:32:00;97073.63;;;17.49;34.05
8253;BME280;61313;48.396;10.008;2023-02-20T10:34:40;97071.78;;;17.94;34.03
8253;BME280;61313;48.396;10.008;2023-02-20T10:37:13;97071.47;;;18.13;33.11
8253;BME280;61313;48.396;10.008;2023-02-20T10:39:44;97067.28;;;18.09;33.31
8253;BME280;61313;48.396;10.008;2023-02-20T10:42:16;97053.81;;;17.69;33.80
8253;BME280;61313;48.396;10.008;2023-02-20T10:45:04;97051.19;;;17.83;33.75
8253;BME280;61313;48.396;10.008;2023-02-20T10:50:31;97041.22;;;18.01;32.67
8253;BME280;61313;48.396;10.008;2023-02-20T10:55:53;97032.19;;;18.04;33.53
8253;BME280;61313;48.396;10.008;2023-02-20T10:58:30;97023.69;;;18.26;33.02
8253;BME280;61313;48.396;10.008;2023-02-20T11:01:01;97028.06;;;18.27;33.26
8253;BME280;61313;48.396;10.008;2023-02-20T11:03:40;97027.69;;;18.18;32.89
8253;BME280;61313;48.396;10.008;2023-02-20T11:06:12;97005.81;;;18.15;33.50
8253;BME280;61313;48.396;10.008;2023-02-20T11:08:38;97015.38;;;18.17;33.51
8253;BME280;61313;48.396;10.008;2023-02-20T11:11:35;97007.56;;;18.29;33.24
8253;BME280;61313;48.396;10.008;2023-02-20T11:14:39;97002.34;;;18.27;33.38
8253;BME280;61313;48.396;10.008;2023-02-20T11:17:15;96998.94;;;18.25;33.74
8253;BME280;61313;48.396;10.008;2023-02-20T11:22:09;97006.56;;;18.17;33.68
8253;BME280;61313;48.396;10.008;2023-02-20T11:24:36;97004.91;;;18.29;33.58
8253;BME280;61313;48.396;10.008;2023-02-20T11:27:23;97004.03;;;18.43;34.17
8253;BME280;61313;48.396;10.008;2023-02-20T11:29:53;97007.28;;;18.33;33.58
8253;BME280;61313;48.396;10.008;2023-02-20T11:32:27;96998.88;;;18.39;33.75
8253;BME280;61313;48.396;10.008;2023-02-20T11:37:28;96982.75;;;18.43;34.22
8253;BME280;61313;48.396;10.008;2023-02-20T11:39:58;96990.81;;;18.41;34.33
8253;BME280;61313;48.396;10.008;2023-02-20T11:42:31;96975.22;;;18.49;34.27
8253;BME280;61313;48.396;10.008;2023-02-20T11:47:36;96968.84;;;18.52;33.91
8253;BME280;61313;48.396;10.008;2023-02-20T11:50:18;96965.53;;;18.48;34.07
8253;BME280;61313;48.396;10.008;2023-02-20T11:55:23;96956.03;;;18.31;34.90
8253;BME280;61313;48.396;10.008;2023-02-20T11:57:50;96952.03;;;18.38;34.57
8253;BME280;61313;48.396;10.008;2023-02-20T12:00:21;96948.47;;;18.25;34.80
8253;BME280;61313;48.396;10.008;2023-02-20T12:02:49;96950.38;;;18.23;34.98
8253;BME280;61313;48.396;10.008;2023-02-20T12:05:16;96946.41;;;18.16;35.14
8253;BME280;61313;48.396;10.008;2023-02-20T12:12:54;96940.25;;;17.88;35.35
8253;BME280;61313;48.396;10.008;2023-02-20T12:15:24;96939.00;;;17.94;35.34
8253;BME280;61313;48.396;10.008;2023-02-20T12:20:22;96936.63;;;17.89;35.17
8253;BME280;61313;48.396;10.008;2023-02-20T12:23:08;96935.50;;;17.93;35.29
8253;BME280;61313;48.396;10.008;2023-02-20T12:28:39;96926.78;;;17.91;34.97
8253;BME280;61313;48.396;10.008;2023-02-20T12:34:18;96918.22;;;18.01;35.40
8253;BME280;61313;48.396;10.008;2023-02-20T12:51:16;96897.94;;;17.85;35.51
8253;BME280;61313;48.396;10.008;2023-02-20T12:56:39;96884.56;;;17.45;36.54
8253;BME280;61313;48.396;10.008;2023-02-20T13:01:35;96875.88;;;17.14;37.16
8253;BME280;61313;48.396;10.008;2023-02-20T13:04:05;96868.25;;;17.51;36.74
8253;BME280;61313;48.396;10.008;2023-02-20T13:06:53;96867.91;;;17.70;36.27
8253;BME280;61313;48.396;10.008;2023-02-20T13:09:37;96851.03;;;17.71;35.60
8253;BME280;61313;48.396;10.008;2023-02-20T13:12:12;96855.50;;;17.44;36.11
8253;BME280;61313;48.396;10.008;2023-02-20T13:14:52;96855.66;;;17.41;36.38
8253;BME280;61313;48.396;10.008;2023-02-20T13:18:06;96848.97;;;17.62;36.02
8253;BME280;61313;48.396;10.008;2023-02-20T13:20:26;96842.81;;;17.62;35.49
8253;BME280;61313;48.396;10.008;2023-02-20T13:25:41;96847.63;;;17.42;35.73
8253;BME280;61313;48.396;10.008;2023-02-20T13:31:18;96841.63;;;17.11;36.21
8253;BME280;61313;48.396;10.008;2023-02-20T13:33:48;96832.44;;;17.03;36.80
8253;BME280;61313;48.396;10.008;2023-02-20T13:57:50;96798.84;;;17.03;36.33
8253;BME280;61313;48.396;10.008;2023-02-20T14:02:57;96798.22;;;17.12;35.94
8253;BME280;61313;48.396;10.008;2023-02-20T14:05:29;96793.28;;;17.21;35.68
8253;BME280;61313;48.396;10.008;2023-02-20T14:07:56;96785.34;;;17.21;35.25
8253;BME280;61313;48.396;10.008;2023-02-20T14:10:24;96783.06;;;17.14;35.47
8253;BME280;61313;48.396;10.008;2023-02-20T14:13:02;96766.59;;;17.09;36.11
8253;BME280;61313;48.396;10.008;2023-02-20T14:15:30;96765.84;;;17.07;36.35
8253;BME280;61313;48.396;10.008;2023-02-20T14:17:57;96762.16;;;17.10;43.44
8253;BME280;61313;48.396;10.008;2023-02-20T14:20:34;96756.06;;;17.22;38.10
8253;BME280;61313;48.396;10.008;2023-02-20T14:23:18;96763.41;;;17.04;36.26
8253;BME280;61313;48.396;10.008;2023-02-20T14:25:58;96755.47;;;16.90;36.15
8253;BME280;61313;48.396;10.008;2023-02-20T14:28:24;96756.81;;;16.83;36.42
8253;BME280;61313;48.396;10.008;2023-02-20T14:31:17;96736.75;;;16.79;36.14
8253;BME280;61313;48.396;10.008;2023-02-20T14:33:47;96734.09;;;16.79;36.27
8253;BME280;61313;48.396;10.008;2023-02-20T14:39:17;96730.94;;;16.72;36.23
8253;BME280;61313;48.396;10.008;2023-02-20T14:41:58;96726.31;;;16.76;36.16
8253;BME280;61313;48.396;10.008;2023-02-20T14:44:25;96733.06;;;16.81;35.96
8253;BME280;61313;48.396;10.008;2023-02-20T14:46:55;96737.13;;;16.72;36.23
8253;BME280;61313;48.396;10.008;2023-02-20T14:49:27;96742.13;;;16.63;36.79
8253;BME280;61313;48.396;10.008;2023-02-20T14:54:41;96729.16;;;16.58;37.13
8253;BME280;61313;48.396;10.008;2023-02-20T14:57:12;96727.25;;;16.75;36.56
8253;BME280;61313;48.396;10.008;2023-02-20T14:59:38;96727.47;;;16.57;37.28
8253;BME280;61313;48.396;10.008;2023-02-20T15:02:24;96735.31;;;16.73;37.05
8253;BME280;61313;48.396;10.008;2023-02-20T15:04:55;96728.31;;;16.72;37.14
8253;BME280;61313;48.396;10.008;2023-02-20T15:07:25;96728.59;;;16.67;37.56
8253;BME280;61313;48.396;10.008;2023-02-20T15:09:54;96732.41;;;16.63;37.67
8253;BME280;61313;48.396;10.008;2023-02-20T15:12:27;96737.50;;;16.66;37.16
8253;BME280;61313;48.396;10.008;2023-02-20T15:14:57;96735.97;;;16.62;37.38
8253;BME280;61313;48.396;10.008;2023-02-20T15:17:43;96727.09;;;16.63;37.41
8253;BME280;61313;48.396;10.008;2023-02-20T15:20:17;96714.78;;;16.62;37.76
8253;BME280;61313;48.396;10.008;2023-02-20T15:22:44;96702.59;;;16.60;37.69
8253;BME280;61313;48.396;10.008;2023-02-20T15:25:29;96694.84;;;16.57;38.09
8253;BME280;61313;48.396;10.008;2023-02-20T15:28:26;96725.09;;;16.52;37.88
8253;BME280;61313;48.396;10.008;2023-02-20T15:33:39;96715.09;;;16.43;38.00
8253;BME280;61313;48.396;10.008;2023-02-20T15:36:05;96702.03;;;16.40;38.57